createdAt,value
2023-03-15T00:00:58.011Z,9.45
2023-03-15T00:03:24.574Z,7.18
2023-03-15T00:05:52.431Z,12.90
2023-03-15T00:08:19.435Z,18.17
2023-03-15T00:10:47.282Z,15.88
2023-03-15T00:13:15.614Z,9.50
2023-03-15T00:15:46.064Z,12.13
2023-03-15T00:18:13.208Z,9.65
2023-03-15T00:20:39.733Z,13.48
2023-03-15T00:23:07.664Z,15.48
2023-03-15T00:25:34.152Z,15.60
2023-03-15T00:28:00.631Z,11.57
2023-03-15T00:30:27.168Z,14.52
2023-03-15T00:32:54.068Z,10.98
2023-03-15T00:35:21.099Z,11.80
2023-03-15T00:37:47.651Z,9.93
2023-03-15T00:40:15.635Z,13.80
2023-03-15T00:42:42.078Z,13.98
2023-03-15T00:45:09.129Z,17.75
2023-03-15T00:47:35.598Z,10.32
2023-03-15T00:50:02.092Z,14.32
2023-03-15T00:52:34.583Z,17.05
2023-03-15T00:55:01.105Z,14.55
2023-03-15T00:57:29.760Z,10.48
2023-03-15T00:59:56.850Z,14.43
2023-03-15T01:02:23.317Z,13.98
2023-03-15T01:04:49.982Z,10.23
2023-03-15T01:07:16.675Z,9.23
2023-03-15T01:09:43.223Z,8.63
2023-03-15T01:12:10.019Z,8.85
2023-03-15T01:14:37.860Z,7.45
2023-03-15T01:17:04.547Z,8.55
2023-03-15T01:19:31.056Z,4.72
2023-03-15T01:21:57.577Z,5.32
2023-03-15T01:24:24.091Z,6.80
2023-03-15T01:26:50.617Z,4.82
2023-03-15T01:29:17.088Z,4.85
2023-03-15T01:31:44.953Z,6.82
2023-03-15T01:34:11.464Z,4.70
2023-03-15T01:36:37.969Z,5.18
2023-03-15T01:39:04.484Z,5.18
2023-03-15T01:41:31.065Z,4.85
2023-03-15T01:43:57.540Z,3.95
2023-03-15T01:46:26.096Z,5.85
2023-03-15T01:49:00.355Z,5.40
2023-03-15T01:51:30.693Z,4.55
2023-03-15T01:54:00.916Z,5.88
2023-03-15T01:56:28.949Z,5.88
2023-03-15T01:58:59.025Z,5.85
2023-03-15T02:01:25.815Z,4.88
2023-03-15T02:03:59.374Z,4.45
2023-03-15T02:06:26.363Z,5.22
2023-03-15T02:08:57.196Z,5.57
2023-03-15T02:11:26.106Z,6.28
2023-03-15T02:13:54.018Z,4.65
2023-03-15T02:16:21.849Z,5.88
2023-03-15T02:18:48.513Z,4.07
2023-03-15T02:21:31.850Z,4.85
2023-03-15T02:24:08.851Z,6.15
2023-03-15T02:26:42.345Z,5.70
2023-03-15T02:29:10.703Z,7.38
2023-03-15T02:31:37.438Z,7.38
2023-03-15T02:34:06.084Z,5.43
2023-03-15T02:36:34.030Z,7.40
2023-03-15T02:39:01.292Z,7.65
2023-03-15T02:41:30.775Z,5.68
2023-03-15T02:44:01.826Z,7.70
2023-03-15T02:46:30.102Z,10.77
2023-03-15T02:48:57.118Z,7.13
2023-03-15T02:51:27.179Z,6.10
2023-03-15T02:53:53.671Z,7.45
2023-03-15T02:56:20.339Z,5.00
2023-03-15T02:58:47.345Z,6.63
2023-03-15T03:01:14.687Z,7.75
2023-03-15T03:03:43.988Z,5.88
2023-03-15T03:06:12.391Z,5.30
2023-03-15T03:08:39.380Z,5.38
2023-03-15T03:11:06.723Z,7.90
2023-03-15T03:13:33.258Z,5.45
2023-03-15T03:15:59.743Z,6.45
2023-03-15T03:18:26.813Z,4.45
2023-03-15T03:20:58.094Z,5.25
2023-03-15T03:23:24.886Z,2.80
2023-03-15T03:25:52.237Z,3.42
2023-03-15T03:28:18.715Z,3.92
2023-03-15T03:30:45.318Z,3.88
2023-03-15T03:33:11.877Z,5.18
2023-03-15T03:35:38.423Z,4.05
2023-03-15T03:38:06.276Z,6.28
2023-03-15T03:40:32.815Z,5.65
2023-03-15T03:42:59.287Z,8.80
2023-03-15T03:45:25.842Z,4.60
2023-03-15T03:47:52.361Z,3.60
2023-03-15T03:50:18.870Z,3.83
2023-03-15T03:52:45.403Z,3.88
2023-03-15T03:55:13.401Z,4.80
2023-03-15T03:57:40.162Z,6.03
2023-03-15T04:00:08.310Z,4.35
2023-03-15T04:02:34.940Z,5.07
2023-03-15T04:05:01.849Z,5.22
2023-03-15T04:07:28.352Z,4.05
2023-03-15T04:09:54.812Z,3.55
2023-03-15T04:12:22.666Z,3.80
2023-03-15T04:14:49.201Z,6.63
2023-03-15T04:17:15.677Z,4.57
2023-03-15T04:19:42.192Z,3.33
2023-03-15T04:22:08.717Z,3.65
2023-03-15T04:24:35.702Z,6.05
2023-03-15T04:27:02.476Z,6.20
2023-03-15T04:29:30.350Z,4.05
2023-03-15T04:31:56.861Z,5.65
2023-03-15T04:34:23.467Z,5.13
2023-03-15T04:36:49.940Z,5.65
2023-03-15T04:39:16.424Z,6.45
2023-03-15T04:41:43.076Z,5.55
2023-03-15T04:44:09.596Z,7.00
2023-03-15T04:46:37.452Z,6.97
2023-03-15T04:49:03.986Z,5.82
2023-03-15T04:51:30.609Z,5.90
2023-03-15T04:53:57.097Z,8.70
2023-03-15T04:56:23.570Z,7.75
2023-03-15T04:58:50.083Z,6.85
2023-03-15T05:01:17.211Z,7.22
2023-03-15T05:03:45.203Z,6.82
2023-03-15T05:06:11.685Z,8.50
2023-03-15T05:08:38.188Z,6.88
2023-03-15T05:11:05.539Z,7.88
2023-03-15T05:13:32.072Z,7.10
2023-03-15T05:15:58.590Z,8.23
2023-03-15T05:18:25.134Z,8.90
2023-03-15T05:20:52.941Z,8.75
2023-03-15T05:23:19.447Z,11.32
2023-03-15T05:25:50.547Z,8.38
2023-03-15T05:28:17.030Z,7.82
2023-03-15T05:30:43.522Z,7.63
2023-03-15T05:33:10.303Z,8.52
2023-03-15T05:35:36.818Z,9.20
2023-03-15T05:38:04.756Z,8.75
2023-03-15T05:40:31.422Z,9.35
2023-03-15T05:42:57.878Z,8.88
2023-03-15T05:45:24.708Z,9.52
2023-03-15T05:47:51.278Z,10.15
2023-03-15T05:50:17.822Z,10.80
2023-03-15T05:52:44.336Z,11.70
2023-03-15T05:55:12.158Z,12.93
2023-03-15T05:57:38.648Z,12.50
2023-03-15T06:00:06.685Z,10.73
2023-03-15T06:02:33.223Z,12.38
2023-03-15T06:04:59.722Z,12.00
2023-03-15T06:07:26.216Z,13.60
2023-03-15T06:09:52.843Z,11.55
2023-03-15T06:12:20.694Z,13.27
2023-03-15T06:14:47.167Z,14.73
2023-03-15T06:17:13.665Z,15.70
2023-03-15T06:19:40.171Z,13.80
2023-03-15T06:22:06.874Z,12.75
2023-03-15T06:24:33.525Z,15.35
2023-03-15T06:27:00.379Z,22.10
2023-03-15T06:29:28.211Z,20.85
2023-03-15T06:31:54.724Z,18.45
2023-03-15T06:34:21.494Z,14.90
2023-03-15T06:36:48.341Z,13.50
2023-03-15T06:39:15.298Z,19.08
2023-03-15T06:41:42.037Z,16.58
2023-03-15T06:44:09.140Z,14.35
2023-03-15T06:46:37.490Z,13.95
2023-03-15T06:49:04.028Z,16.88
2023-03-15T06:51:30.509Z,16.15
2023-03-15T06:53:56.967Z,17.92
2023-03-15T06:56:23.505Z,15.57
2023-03-15T06:58:50.066Z,19.92
2023-03-15T07:01:16.635Z,15.25
2023-03-15T07:03:44.559Z,15.57
2023-03-15T07:06:11.062Z,20.17
2023-03-15T07:08:37.563Z,14.95
2023-03-15T07:11:04.440Z,17.38
2023-03-15T07:13:30.934Z,16.35
2023-03-15T07:15:57.524Z,18.83
2023-03-15T07:18:24.045Z,18.60
2023-03-15T07:20:57.048Z,18.40
2023-03-15T07:23:23.510Z,16.20
2023-03-15T07:25:55.075Z,17.42
2023-03-15T07:28:22.980Z,16.95
2023-03-15T07:30:54.067Z,16.98
2023-03-15T07:33:21.190Z,18.40
2023-03-15T07:35:47.831Z,18.63
2023-03-15T07:38:15.727Z,18.67
2023-03-15T07:40:42.211Z,19.35
2023-03-15T07:43:08.705Z,21.55
2023-03-15T07:45:35.210Z,18.63
2023-03-15T07:48:01.753Z,16.90
2023-03-15T07:50:28.344Z,16.42
2023-03-15T07:52:55.052Z,16.60
2023-03-15T07:55:22.880Z,15.88
2023-03-15T07:57:51.121Z,16.55
2023-03-15T08:00:19.749Z,16.55
2023-03-15T08:02:46.466Z,19.45
2023-03-15T08:05:12.937Z,18.20
2023-03-15T08:07:39.427Z,16.77
2023-03-15T08:10:06.907Z,18.88
2023-03-15T08:12:34.749Z,16.75
2023-03-15T08:15:01.270Z,17.20
2023-03-15T08:17:27.763Z,15.45
2023-03-15T08:19:54.230Z,16.95
2023-03-15T08:22:20.930Z,16.55
2023-03-15T08:24:47.448Z,21.67
2023-03-15T08:27:13.987Z,21.70
2023-03-15T08:29:41.811Z,19.15
2023-03-15T08:32:08.961Z,18.35
2023-03-15T08:34:35.542Z,17.95
2023-03-15T08:37:02.031Z,16.17
2023-03-15T08:39:28.546Z,15.20
2023-03-15T08:41:55.055Z,16.38
2023-03-15T08:44:21.498Z,16.25
2023-03-15T08:46:49.356Z,18.67
2023-03-15T08:49:15.842Z,10.98
2023-03-15T08:51:42.373Z,18.92
2023-03-15T08:54:08.914Z,15.02
2023-03-15T08:56:36.112Z,9.07
2023-03-15T08:59:02.611Z,11.27
2023-03-15T09:01:29.071Z,15.00
2023-03-15T09:03:57.111Z,10.13
2023-03-15T09:06:23.606Z,12.82
2023-03-15T09:08:50.106Z,12.55
2023-03-15T09:11:16.643Z,11.63
2023-03-15T09:13:43.112Z,11.95
2023-03-15T09:16:09.669Z,10.32
2023-03-15T09:18:36.221Z,13.13
2023-03-15T09:21:05.204Z,15.05
2023-03-15T09:23:31.700Z,13.88
2023-03-15T09:25:58.193Z,10.57
2023-03-15T09:28:25.032Z,11.40
2023-03-15T09:30:51.665Z,11.30
2023-03-15T09:33:18.366Z,13.20
2023-03-15T09:35:44.898Z,11.13
2023-03-15T09:38:12.700Z,8.98
2023-03-15T09:40:41.240Z,14.45
2023-03-15T09:43:31.667Z,9.77
2023-03-15T09:46:11.375Z,11.57
2023-03-15T09:48:46.334Z,9.23
2023-03-15T09:51:19.589Z,12.57
2023-03-15T09:53:54.565Z,10.63
2023-03-15T09:56:27.066Z,7.35
2023-03-15T09:58:58.078Z,11.15
2023-03-15T10:01:30.292Z,8.38
2023-03-15T10:03:57.101Z,8.02
2023-03-15T10:06:26.444Z,10.70
2023-03-15T10:08:57.191Z,11.55
2023-03-15T10:11:29.706Z,9.05
2023-03-15T10:14:13.461Z,7.28
2023-03-15T10:16:41.985Z,5.70
2023-03-15T10:19:22.273Z,13.10
2023-03-15T10:22:00.176Z,7.97
2023-03-15T10:24:37.389Z,12.93
2023-03-15T10:27:14.901Z,11.57
2023-03-15T10:29:42.250Z,11.35
2023-03-15T10:32:16.083Z,8.63
2023-03-15T10:34:42.896Z,5.18
2023-03-15T10:37:09.901Z,6.72
2023-03-15T10:39:37.736Z,8.80
2023-03-15T10:42:04.309Z,9.75
2023-03-15T10:44:36.823Z,8.40
2023-03-15T10:47:21.517Z,12.57
2023-03-15T10:49:48.943Z,7.47
2023-03-15T10:52:32.417Z,6.65
2023-03-15T10:55:04.552Z,6.55
2023-03-15T10:57:35.464Z,7.15
2023-03-15T11:00:05.213Z,9.95
2023-03-15T11:02:31.746Z,14.27
2023-03-15T11:05:02.284Z,13.43
2023-03-15T11:07:29.236Z,7.20
2023-03-15T11:10:01.636Z,7.57
2023-03-15T11:12:30.875Z,7.65
2023-03-15T11:15:00.080Z,5.70
2023-03-15T11:17:29.282Z,3.70
2023-03-15T11:19:57.961Z,5.00
2023-03-15T11:22:24.515Z,6.75
2023-03-15T11:24:52.170Z,6.75
2023-03-15T11:27:23.085Z,6.32
2023-03-15T11:29:53.006Z,3.83
2023-03-15T11:32:22.650Z,5.28
2023-03-15T11:34:56.788Z,5.00
2023-03-15T11:37:28.031Z,6.47
2023-03-15T11:40:08.724Z,4.13
2023-03-15T11:42:44.473Z,6.57
2023-03-15T11:45:17.828Z,4.30
2023-03-15T11:47:51.266Z,9.10
2023-03-15T11:50:19.815Z,5.05
2023-03-15T11:52:49.393Z,10.25
2023-03-15T11:55:19.078Z,3.38
2023-03-15T11:57:47.724Z,6.47
2023-03-15T12:00:49.044Z,6.55
2023-03-15T12:03:39.772Z,8.52
2023-03-15T12:06:32.974Z,9.57
2023-03-15T12:09:00.054Z,4.20
2023-03-15T12:11:41.316Z,6.43
2023-03-15T12:14:27.180Z,5.75
2023-03-15T12:17:12.231Z,7.72
2023-03-15T12:19:38.762Z,6.35
2023-03-15T12:22:05.423Z,5.18
2023-03-15T12:24:37.058Z,4.28
2023-03-15T12:27:06.287Z,7.57
2023-03-15T12:29:35.655Z,2.15
2023-03-15T12:32:11.327Z,5.97
2023-03-15T12:34:45.719Z,7.57
2023-03-15T12:37:16.714Z,7.80
2023-03-15T12:39:46.583Z,5.90
2023-03-15T12:42:32.941Z,2.45
2023-03-15T12:45:32.864Z,8.30
2023-03-15T12:48:21.703Z,5.85
2023-03-15T12:50:59.808Z,5.35
2023-03-15T12:53:39.532Z,6.13
2023-03-15T12:56:30.124Z,4.85
2023-03-15T12:59:02.769Z,6.22
2023-03-15T13:01:29.367Z,3.35
2023-03-15T13:03:58.635Z,7.32
2023-03-15T13:06:41.754Z,4.72
2023-03-15T13:09:18.613Z,6.03
2023-03-15T13:11:54.036Z,4.28
2023-03-15T13:14:40.627Z,4.80
2023-03-15T13:17:20.467Z,3.70
2023-03-15T13:19:54.790Z,5.05
2023-03-15T13:22:30.595Z,2.63
2023-03-15T13:25:07.012Z,3.33
2023-03-15T13:27:49.886Z,5.57
2023-03-15T13:30:32.670Z,6.40
2023-03-15T13:33:06.837Z,5.25
2023-03-15T13:35:42.781Z,4.88
2023-03-15T13:38:21.540Z,3.17
2023-03-15T13:40:48.144Z,4.47
2023-03-15T13:43:14.855Z,5.90
2023-03-15T13:45:42.443Z,3.63
2023-03-15T13:48:09.351Z,5.93
2023-03-15T13:50:38.253Z,4.25
2023-03-15T13:53:05.165Z,5.68
2023-03-15T13:55:34.232Z,4.68
2023-03-15T13:58:08.013Z,3.67
2023-03-15T14:00:36.982Z,4.10
2023-03-15T14:03:05.797Z,6.85
2023-03-15T14:05:34.283Z,4.13
2023-03-15T14:08:04.311Z,2.85
2023-03-15T14:10:33.194Z,5.22
2023-03-15T14:13:21.181Z,2.08
2023-03-15T14:15:48.396Z,3.03
2023-03-15T14:18:17.944Z,2.08
2023-03-15T14:20:46.740Z,4.95
2023-03-15T14:23:17.157Z,3.85
2023-03-15T14:25:44.073Z,4.03
2023-03-15T14:28:14.394Z,2.35
2023-03-15T14:30:41.128Z,1.80
2023-03-15T14:33:07.801Z,4.65
2023-03-15T14:35:42.289Z,4.22
2023-03-15T14:38:18.852Z,2.58
2023-03-15T14:40:45.698Z,1.98
2023-03-15T14:43:12.247Z,7.13
2023-03-15T14:45:41.780Z,8.38
2023-03-15T14:48:13.308Z,3.30
2023-03-15T14:50:42.108Z,4.15
2023-03-15T14:53:17.051Z,4.07
2023-03-15T14:55:44.920Z,2.92
2023-03-15T14:58:13.166Z,2.50
2023-03-15T15:00:40.843Z,4.13
2023-03-15T15:03:16.908Z,2.85
2023-03-15T15:05:43.560Z,2.13
2023-03-15T15:08:11.773Z,6.75
2023-03-15T15:10:39.412Z,11.00
2023-03-15T15:13:07.694Z,2.67
2023-03-15T15:15:43.947Z,2.63
2023-03-15T15:18:18.389Z,2.10
2023-03-15T15:20:45.366Z,3.63
2023-03-15T15:23:16.765Z,3.47
2023-03-15T15:25:45.482Z,3.33
2023-03-15T15:28:23.931Z,4.57
2023-03-15T15:30:57.716Z,2.83
2023-03-15T15:33:24.324Z,3.15
2023-03-15T15:35:53.595Z,2.60
2023-03-15T15:38:21.589Z,4.28
2023-03-15T15:40:48.109Z,1.35
2023-03-15T15:43:15.968Z,1.42
2023-03-15T15:45:42.469Z,4.90
2023-03-15T15:48:08.965Z,3.95
2023-03-15T15:50:36.506Z,7.55
2023-03-15T15:53:05.157Z,3.50
2023-03-15T15:55:33.777Z,4.05
2023-03-15T15:58:01.750Z,2.90
2023-03-15T16:00:30.441Z,3.00
2023-03-15T16:02:58.118Z,3.95
2023-03-15T16:05:27.147Z,4.53
2023-03-15T16:07:55.370Z,4.72
2023-03-15T16:10:25.145Z,2.97
2023-03-15T16:12:53.390Z,2.88
2023-03-15T16:15:20.384Z,3.88
2023-03-15T16:17:48.554Z,2.45
2023-03-15T16:20:16.990Z,9.57
2023-03-15T16:22:45.925Z,2.33
2023-03-15T16:25:17.581Z,21.90
2023-03-15T16:27:44.074Z,5.13
2023-03-15T16:30:18.564Z,5.88
2023-03-15T16:32:45.164Z,7.45
2023-03-15T16:35:13.843Z,2.25
2023-03-15T16:37:40.348Z,3.42
2023-03-15T16:40:15.215Z,5.82
2023-03-15T16:42:41.699Z,7.57
2023-03-15T16:45:12.881Z,1.75
2023-03-15T16:47:39.407Z,4.25
2023-03-15T16:50:06.309Z,4.47
2023-03-15T16:52:34.304Z,4.38
2023-03-15T16:55:01.585Z,4.28
2023-03-15T16:57:28.206Z,6.85
2023-03-15T16:59:54.844Z,2.65
2023-03-15T17:02:23.174Z,4.78
2023-03-15T17:04:50.029Z,2.05
2023-03-15T17:07:17.221Z,7.68
2023-03-15T17:09:48.432Z,5.50
2023-03-15T17:12:21.085Z,2.35
2023-03-15T17:14:47.929Z,2.65
2023-03-15T17:17:14.463Z,2.67
2023-03-15T17:19:40.992Z,6.63
2023-03-15T17:22:07.619Z,4.35
2023-03-15T17:24:34.252Z,6.80
2023-03-15T17:27:02.850Z,6.55
2023-03-15T17:29:29.489Z,7.30
2023-03-15T17:31:56.042Z,8.55
2023-03-15T17:34:22.566Z,4.70
2023-03-15T17:36:49.082Z,5.32
2023-03-15T17:39:16.803Z,3.95
2023-03-15T17:41:46.214Z,5.93
2023-03-15T17:44:14.238Z,5.95
2023-03-15T17:46:40.826Z,5.38
2023-03-15T17:49:07.320Z,7.43
2023-03-15T17:51:36.162Z,6.82
2023-03-15T17:54:12.058Z,7.68
2023-03-15T17:56:38.524Z,4.57
2023-03-15T17:59:04.997Z,7.38
2023-03-15T18:01:34.926Z,4.00
2023-03-15T18:04:01.483Z,4.90
2023-03-15T18:06:28.044Z,6.03
2023-03-15T18:08:54.575Z,11.73
2023-03-15T18:11:24.664Z,10.40
2023-03-15T18:13:52.012Z,10.63
2023-03-15T18:16:18.538Z,9.57
2023-03-15T18:18:46.394Z,6.65
2023-03-15T18:21:14.405Z,7.65
2023-03-15T18:23:41.304Z,10.30
2023-03-15T18:26:07.886Z,6.38
2023-03-15T18:28:34.424Z,12.70
2023-03-15T18:31:00.967Z,15.05
2023-03-15T18:33:27.526Z,17.85
2023-03-15T18:35:55.357Z,16.83
2023-03-15T18:38:21.873Z,11.55
2023-03-15T18:40:48.446Z,8.80
2023-03-15T18:43:15.114Z,7.22
2023-03-15T18:45:41.612Z,5.93
2023-03-15T18:48:08.246Z,9.60
2023-03-15T18:50:35.394Z,7.88
2023-03-15T18:53:05.974Z,7.43
2023-03-15T18:55:32.959Z,5.10
2023-03-15T18:57:59.792Z,6.75
2023-03-15T19:00:28.551Z,7.72
2023-03-15T19:02:56.577Z,9.75
2023-03-15T19:05:23.845Z,6.40
2023-03-15T19:07:50.330Z,9.60
2023-03-15T19:10:19.961Z,6.53
2023-03-15T19:12:47.677Z,6.78
2023-03-15T19:15:15.686Z,11.05
2023-03-15T19:17:42.471Z,8.93
2023-03-15T19:20:11.666Z,6.53
2023-03-15T19:22:38.575Z,6.70
2023-03-15T19:25:06.205Z,4.53
2023-03-15T19:27:34.301Z,6.22
2023-03-15T19:30:00.776Z,18.30
2023-03-15T19:32:27.309Z,5.90
2023-03-15T19:34:53.839Z,8.15
2023-03-15T19:37:20.322Z,8.23
2023-03-15T19:39:46.939Z,5.15
2023-03-15T19:42:15.009Z,4.60
2023-03-15T19:44:42.859Z,8.18
2023-03-15T19:47:09.346Z,4.45
2023-03-15T19:49:36.120Z,23.23
2023-03-15T19:52:02.926Z,5.22
2023-03-15T19:54:29.412Z,4.10
2023-03-15T19:56:55.914Z,4.85
2023-03-15T19:59:22.431Z,8.35
2023-03-15T20:01:50.300Z,6.20
2023-03-15T20:04:16.922Z,5.28
2023-03-15T20:06:43.448Z,5.25
2023-03-15T20:09:09.952Z,7.15
2023-03-15T20:11:36.590Z,3.03
2023-03-15T20:14:03.170Z,8.48
2023-03-15T20:16:29.762Z,6.68
2023-03-15T20:18:57.710Z,5.97
2023-03-15T20:21:24.283Z,7.32
2023-03-15T20:23:51.014Z,5.65
2023-03-15T20:26:18.417Z,6.57
2023-03-15T20:28:45.219Z,7.32
2023-03-15T20:31:13.768Z,6.93
2023-03-15T20:33:40.284Z,6.28
2023-03-15T20:36:08.633Z,5.60
2023-03-15T20:38:35.611Z,7.47
2023-03-15T20:41:02.079Z,5.97
2023-03-15T20:43:28.589Z,3.70
2023-03-15T20:45:55.664Z,5.80
2023-03-15T20:48:22.205Z,6.20
2023-03-15T20:50:48.722Z,4.55
2023-03-15T20:53:16.538Z,5.05
2023-03-15T20:55:43.639Z,16.23
2023-03-15T20:58:10.185Z,10.80
2023-03-15T21:00:36.812Z,6.65
2023-03-15T21:03:03.468Z,8.27
2023-03-15T21:05:29.967Z,7.15
2023-03-15T21:07:56.487Z,7.30
2023-03-15T21:10:25.095Z,10.32
2023-03-15T21:12:51.757Z,10.48
2023-03-15T21:15:18.452Z,6.40
2023-03-15T21:17:45.176Z,8.18
2023-03-15T21:20:13.690Z,8.10
2023-03-15T21:22:41.476Z,5.35
2023-03-15T21:25:08.798Z,8.73
2023-03-15T21:27:36.601Z,8.15
2023-03-15T21:30:03.513Z,10.73
2023-03-15T21:32:30.056Z,6.43
2023-03-15T21:34:56.528Z,7.10
2023-03-15T21:37:22.967Z,9.35
2023-03-15T21:39:49.456Z,10.40
2023-03-15T21:42:16.015Z,9.18
2023-03-15T21:44:43.870Z,11.73
2023-03-15T21:47:10.643Z,7.68
2023-03-15T21:49:37.157Z,5.97
2023-03-15T21:52:03.614Z,10.88
2023-03-15T21:54:30.188Z,7.90
2023-03-15T21:56:56.733Z,8.18
2023-03-15T21:59:24.004Z,7.18
2023-03-15T22:01:51.807Z,8.02
2023-03-15T22:04:18.358Z,7.72
2023-03-15T22:06:44.840Z,7.15
2023-03-15T22:09:11.743Z,7.63
2023-03-15T22:11:38.215Z,10.02
2023-03-15T22:14:04.730Z,9.30
2023-03-15T22:16:31.316Z,9.50
2023-03-15T22:18:59.301Z,7.68
2023-03-15T22:21:25.825Z,10.02
2023-03-15T22:23:52.294Z,8.20
2023-03-15T22:26:18.847Z,8.70
2023-03-15T22:28:45.334Z,12.10
2023-03-15T22:31:11.944Z,9.57
2023-03-15T22:33:38.447Z,8.32
2023-03-15T22:36:07.043Z,8.35
2023-03-15T22:38:33.599Z,10.55
2023-03-15T22:41:01.344Z,10.38
2023-03-15T22:43:27.955Z,6.50
2023-03-15T22:45:54.498Z,11.90
2023-03-15T22:48:21.125Z,8.90
2023-03-15T22:50:47.610Z,9.52
2023-03-15T22:53:15.433Z,10.02
2023-03-15T22:55:41.890Z,7.13
2023-03-15T22:58:08.481Z,6.88
2023-03-15T23:00:34.941Z,11.68
2023-03-15T23:03:01.431Z,6.18
2023-03-15T23:05:28.019Z,7.15
2023-03-15T23:07:54.506Z,9.07
2023-03-15T23:10:22.415Z,8.27
2023-03-15T23:12:48.918Z,9.80
2023-03-15T23:15:15.579Z,13.98
2023-03-15T23:17:42.724Z,7.78
2023-03-15T23:20:10.283Z,19.92
2023-03-15T23:22:36.887Z,18.95
2023-03-15T23:25:03.877Z,8.90
2023-03-15T23:27:31.704Z,8.05
2023-03-15T23:29:58.190Z,8.70
2023-03-15T23:32:24.772Z,7.60
2023-03-15T23:34:51.422Z,7.38
2023-03-15T23:37:17.931Z,9.95
2023-03-15T23:39:44.888Z,8.85
2023-03-15T23:42:12.195Z,10.23
2023-03-15T23:44:40.059Z,7.75
2023-03-15T23:47:07.001Z,6.15
2023-03-15T23:49:33.814Z,7.22
2023-03-15T23:52:01.058Z,8.85
2023-03-15T23:54:27.579Z,8.95
2023-03-15T23:56:54.059Z,8.75
2023-03-15T23:59:20.557Z,8.45
